createdAt,value
2022-10-22T00:01:07.269Z,4.91
2022-10-22T00:03:34.919Z,4.94
2022-10-22T00:06:04.574Z,4.99
2022-10-22T00:08:32.347Z,5.01
2022-10-22T00:10:59.958Z,4.95
2022-10-22T00:13:27.535Z,4.96
2022-10-22T00:15:57.062Z,4.98
2022-10-22T00:18:24.612Z,4.96
2022-10-22T00:20:54.130Z,5.03
2022-10-22T00:23:21.836Z,5.04
2022-10-22T00:25:49.464Z,4.97
2022-10-22T00:28:17.437Z,4.92
2022-10-22T00:30:44.991Z,5.08
2022-10-22T00:33:12.793Z,5.06
2022-10-22T00:35:40.508Z,5.06
2022-10-22T00:38:08.194Z,5.00
2022-10-22T00:40:37.005Z,4.98
2022-10-22T00:43:05.131Z,4.85
2022-10-22T00:45:32.842Z,4.83
2022-10-22T00:48:07.901Z,4.86
2022-10-22T00:51:08.492Z,4.88
2022-10-22T00:53:43.977Z,4.85
2022-10-22T00:56:12.021Z,4.84
2022-10-22T00:58:45.404Z,4.83
2022-10-22T01:01:21.590Z,4.76
2022-10-22T01:03:50.669Z,4.78
2022-10-22T01:06:28.419Z,4.76
2022-10-22T01:09:04.983Z,4.64
2022-10-22T01:11:50.071Z,4.65
2022-10-22T01:14:32.680Z,4.66
2022-10-22T01:17:09.130Z,4.67
2022-10-22T01:19:43.321Z,4.65
2022-10-22T01:23:07.686Z,4.59
2022-10-22T01:25:44.502Z,4.58
2022-10-22T01:28:39.927Z,4.59
2022-10-22T01:31:09.560Z,4.55
2022-10-22T01:33:37.784Z,4.56
2022-10-22T01:36:05.584Z,4.45
2022-10-22T01:38:34.320Z,4.43
2022-10-22T01:41:02.647Z,4.35
2022-10-22T01:43:30.338Z,4.35
2022-10-22T01:46:01.130Z,4.37
2022-10-22T01:48:55.736Z,4.35
2022-10-22T01:51:35.013Z,4.33
2022-10-22T01:54:17.721Z,4.37
2022-10-22T01:56:54.838Z,4.34
2022-10-22T01:59:37.318Z,4.26
2022-10-22T02:02:32.878Z,4.26
2022-10-22T02:05:10.439Z,4.24
2022-10-22T02:07:45.075Z,4.21
2022-10-22T02:10:14.473Z,4.24
2022-10-22T02:12:45.097Z,4.23
2022-10-22T02:15:15.825Z,4.23
2022-10-22T02:17:46.443Z,4.18
2022-10-22T02:20:23.238Z,4.20
2022-10-22T02:22:51.099Z,4.20
2022-10-22T02:25:21.441Z,4.21
2022-10-22T02:28:13.268Z,4.29
2022-10-22T02:30:44.288Z,4.25
2022-10-22T02:33:41.220Z,4.23
2022-10-22T02:36:09.671Z,4.28
2022-10-22T02:38:40.587Z,4.21
2022-10-22T02:41:08.246Z,4.22
2022-10-22T02:43:42.520Z,4.23
2022-10-22T02:46:11.305Z,4.20
2022-10-22T02:48:38.813Z,4.11
2022-10-22T02:51:06.993Z,4.12
2022-10-22T02:53:35.363Z,4.17
2022-10-22T02:56:02.956Z,4.17
2022-10-22T02:58:30.824Z,4.08
2022-10-22T03:00:58.410Z,4.08
2022-10-22T03:03:26.385Z,4.14
2022-10-22T03:05:53.887Z,4.06
2022-10-22T03:08:21.458Z,4.12
2022-10-22T03:10:49.104Z,4.17
2022-10-22T03:13:18.440Z,4.25
2022-10-22T03:15:49.057Z,4.24
2022-10-22T03:18:17.708Z,4.27
2022-10-22T03:20:45.214Z,4.26
2022-10-22T03:23:16.101Z,4.20
2022-10-22T03:25:45.138Z,4.19
2022-10-22T03:28:15.451Z,4.23
2022-10-22T03:30:42.932Z,4.25
2022-10-22T03:33:10.879Z,4.29
2022-10-22T03:35:46.168Z,4.24
2022-10-22T03:38:14.665Z,4.22
2022-10-22T03:40:43.926Z,4.20
2022-10-22T03:43:12.553Z,4.18
2022-10-22T03:45:40.355Z,4.25
2022-10-22T03:48:08.002Z,4.21
2022-10-22T03:50:35.724Z,4.30
2022-10-22T03:53:04.381Z,4.28
2022-10-22T03:55:31.993Z,4.24
2022-10-22T03:57:59.515Z,4.26
2022-10-22T04:00:26.969Z,4.27
2022-10-22T04:02:54.480Z,4.34
2022-10-22T04:05:22.410Z,4.34
2022-10-22T04:07:49.924Z,4.29
2022-10-22T04:10:19.091Z,4.27
2022-10-22T04:12:49.844Z,4.23
2022-10-22T04:15:17.957Z,4.18
2022-10-22T04:17:45.775Z,4.22
2022-10-22T04:20:13.781Z,4.28
2022-10-22T04:22:44.033Z,4.29
2022-10-22T04:25:11.790Z,4.32
2022-10-22T04:27:39.603Z,4.40
2022-10-22T04:30:08.050Z,4.47
2022-10-22T04:32:36.525Z,4.50
2022-10-22T04:35:04.441Z,4.59
2022-10-22T04:37:33.053Z,4.61
2022-10-22T04:40:00.575Z,4.69
2022-10-22T04:42:28.402Z,4.76
2022-10-22T04:44:55.828Z,4.77
2022-10-22T04:47:23.507Z,4.86
2022-10-22T04:49:51.232Z,4.91
2022-10-22T04:52:18.781Z,4.94
2022-10-22T04:54:47.428Z,5.07
2022-10-22T04:57:15.052Z,5.13
2022-10-22T04:59:43.671Z,5.15
2022-10-22T05:02:11.148Z,5.21
2022-10-22T05:04:38.646Z,5.35
2022-10-22T05:07:08.255Z,5.38
2022-10-22T05:09:35.884Z,5.37
2022-10-22T05:12:03.536Z,5.31
2022-10-22T05:14:31.250Z,5.47
2022-10-22T05:16:59.501Z,5.52
2022-10-22T05:19:29.584Z,5.56
2022-10-22T05:22:01.671Z,5.55
2022-10-22T05:24:30.714Z,5.59
2022-10-22T05:26:59.600Z,5.59
2022-10-22T05:29:27.729Z,5.66
2022-10-22T05:31:56.049Z,5.69
2022-10-22T05:34:23.789Z,5.78
2022-10-22T05:36:52.514Z,5.82
2022-10-22T05:39:20.221Z,5.84
2022-10-22T05:41:47.728Z,5.93
2022-10-22T05:44:17.104Z,5.96
2022-10-22T05:46:44.629Z,5.98
2022-10-22T05:49:14.995Z,6.07
2022-10-22T05:51:42.559Z,6.02
2022-10-22T05:54:17.851Z,6.14
2022-10-22T05:56:46.981Z,6.16
2022-10-22T05:59:14.708Z,6.15
2022-10-22T06:01:42.379Z,6.21
2022-10-22T06:04:13.131Z,6.27
2022-10-22T06:06:44.658Z,6.38
2022-10-22T06:09:15.339Z,6.41
2022-10-22T06:11:43.183Z,6.42
2022-10-22T06:14:11.591Z,6.47
2022-10-22T06:16:39.553Z,6.51
2022-10-22T06:19:09.721Z,6.66
2022-10-22T06:21:37.740Z,6.80
2022-10-22T06:24:05.613Z,6.64
2022-10-22T06:26:33.463Z,6.61
2022-10-22T06:29:01.891Z,6.71
2022-10-22T06:31:29.854Z,6.85
2022-10-22T06:33:58.150Z,7.09
2022-10-22T06:36:25.706Z,7.21
2022-10-22T06:38:55.411Z,7.30
2022-10-22T06:41:25.787Z,7.35
2022-10-22T06:43:57.662Z,7.51
2022-10-22T06:46:26.897Z,7.59
2022-10-22T06:48:57.532Z,7.60
2022-10-22T06:51:26.221Z,7.55
2022-10-22T06:53:55.585Z,7.60
2022-10-22T06:56:24.496Z,7.69
2022-10-22T06:58:53.871Z,7.74
2022-10-22T07:01:24.234Z,7.80
2022-10-22T07:03:53.042Z,7.83
2022-10-22T07:06:21.935Z,7.91
2022-10-22T07:08:50.028Z,7.95
2022-10-22T07:11:23.312Z,8.02
2022-10-22T07:13:53.572Z,7.97
2022-10-22T07:16:21.096Z,8.04
2022-10-22T07:18:49.535Z,8.07
2022-10-22T07:21:19.332Z,8.08
2022-10-22T07:23:47.998Z,8.01
2022-10-22T07:26:17.232Z,7.97
2022-10-22T07:28:44.721Z,8.02
2022-10-22T07:31:14.723Z,8.05
2022-10-22T07:33:42.400Z,8.16
2022-10-22T07:36:17.333Z,8.24
2022-10-22T07:38:48.336Z,8.20
2022-10-22T07:41:17.009Z,8.21
2022-10-22T07:43:44.839Z,8.30
2022-10-22T07:46:13.065Z,8.34
2022-10-22T07:48:40.830Z,8.38
2022-10-22T07:51:08.391Z,8.52
2022-10-22T07:53:37.105Z,8.60
2022-10-22T07:56:08.512Z,8.60
2022-10-22T07:58:36.736Z,8.58
2022-10-22T08:01:05.962Z,8.55
2022-10-22T08:03:34.772Z,8.48
2022-10-22T08:06:03.176Z,8.62
2022-10-22T08:08:31.012Z,8.79
2022-10-22T08:11:01.055Z,9.00
2022-10-22T08:13:32.758Z,9.18
2022-10-22T08:16:02.177Z,9.30
2022-10-22T08:18:30.422Z,9.38
2022-10-22T08:20:58.697Z,9.44
2022-10-22T08:23:28.759Z,9.46
2022-10-22T08:25:57.642Z,9.54
2022-10-22T08:28:25.721Z,9.65
2022-10-22T08:30:53.312Z,9.76
2022-10-22T08:33:20.926Z,9.85
2022-10-22T08:35:53.181Z,9.92
2022-10-22T08:38:21.359Z,9.97
2022-10-22T08:40:53.124Z,10.05
2022-10-22T08:44:02.631Z,10.15
2022-10-22T08:46:59.605Z,10.27
2022-10-22T08:49:39.730Z,10.29
2022-10-22T08:52:14.697Z,10.25
2022-10-22T08:54:52.564Z,10.27
2022-10-22T08:57:26.373Z,10.19
2022-10-22T09:00:04.216Z,10.20
2022-10-22T09:02:39.715Z,10.26
2022-10-22T09:05:22.825Z,10.34
2022-10-22T09:07:53.229Z,10.47
2022-10-22T09:10:25.786Z,10.37
2022-10-22T09:12:54.332Z,10.31
2022-10-22T09:15:21.798Z,10.25
2022-10-22T09:18:05.705Z,10.19
2022-10-22T09:20:45.243Z,10.23
2022-10-22T09:23:18.843Z,10.21
2022-10-22T09:25:47.063Z,10.20
2022-10-22T09:28:18.215Z,10.18
2022-10-22T09:30:46.063Z,10.23
2022-10-22T09:33:25.237Z,10.34
2022-10-22T09:35:59.330Z,10.39
2022-10-22T09:38:29.486Z,10.67
2022-10-22T09:41:03.954Z,10.81
2022-10-22T09:43:32.499Z,10.96
2022-10-22T09:46:15.366Z,11.16
2022-10-22T09:48:50.346Z,11.30
2022-10-22T09:51:35.747Z,11.20
2022-10-22T09:54:18.524Z,11.08
2022-10-22T09:57:03.633Z,11.18
2022-10-22T09:59:34.120Z,11.37
2022-10-22T10:02:37.968Z,11.45
2022-10-22T10:05:19.297Z,11.36
2022-10-22T10:07:48.220Z,11.46
2022-10-22T10:10:27.796Z,11.56
2022-10-22T10:13:03.890Z,11.61
2022-10-22T10:15:53.472Z,11.57
2022-10-22T10:18:59.029Z,11.74
2022-10-22T10:21:52.902Z,11.69
2022-10-22T10:24:58.347Z,11.66
2022-10-22T10:27:38.729Z,11.64
2022-10-22T10:30:18.537Z,11.62
2022-10-22T10:33:04.584Z,11.69
2022-10-22T10:35:55.369Z,11.75
2022-10-22T10:38:43.227Z,11.88
2022-10-22T10:41:19.313Z,11.95
2022-10-22T10:44:28.111Z,11.95
2022-10-22T10:47:10.705Z,12.05
2022-10-22T10:49:38.593Z,11.85
2022-10-22T10:52:09.094Z,11.93
2022-10-22T10:55:00.731Z,11.99
2022-10-22T10:57:39.986Z,11.78
2022-10-22T11:00:21.148Z,11.71
2022-10-22T11:05:35.479Z,11.88
2022-10-22T11:08:24.881Z,11.93
2022-10-22T11:10:54.879Z,11.87
2022-10-22T11:13:31.681Z,12.00
2022-10-22T11:16:16.238Z,12.24
2022-10-22T11:18:58.328Z,12.02
2022-10-22T11:21:36.408Z,12.09
2022-10-22T11:24:14.131Z,12.15
2022-10-22T11:26:50.751Z,12.29
2022-10-22T11:29:35.348Z,12.22
2022-10-22T11:32:04.007Z,12.22
2022-10-22T11:34:45.800Z,12.52
2022-10-22T11:37:14.913Z,12.59
2022-10-22T11:39:47.654Z,12.86
2022-10-22T11:42:34.912Z,12.81
2022-10-22T11:45:29.122Z,12.75
2022-10-22T11:47:56.889Z,12.47
2022-10-22T11:50:28.562Z,12.53
2022-10-22T11:52:59.199Z,12.62
2022-10-22T11:55:35.011Z,12.52
2022-10-22T11:58:28.569Z,12.41
2022-10-22T12:00:56.192Z,12.35
2022-10-22T12:03:32.670Z,12.40
2022-10-22T12:06:12.224Z,12.33
2022-10-22T12:08:51.393Z,12.21
2022-10-22T12:11:37.149Z,12.12
2022-10-22T12:14:26.966Z,12.16
2022-10-22T12:17:09.825Z,12.10
2022-10-22T12:19:39.928Z,11.96
2022-10-22T12:22:10.575Z,11.94
2022-10-22T12:24:41.715Z,11.91
2022-10-22T12:27:22.455Z,12.05
2022-10-22T12:29:56.276Z,12.17
2022-10-22T12:32:29.695Z,12.08
2022-10-22T12:34:57.216Z,12.19
2022-10-22T12:37:25.147Z,12.17
2022-10-22T12:39:53.709Z,12.23
2022-10-22T12:42:23.847Z,12.27
2022-10-22T12:44:55.868Z,12.21
2022-10-22T12:47:23.660Z,12.20
2022-10-22T12:49:51.688Z,12.19
2022-10-22T12:52:22.964Z,11.93
2022-10-22T12:54:55.153Z,12.03
2022-10-22T12:57:23.136Z,11.95
2022-10-22T12:59:52.173Z,11.93
2022-10-22T13:02:25.428Z,11.90
2022-10-22T13:05:22.946Z,11.86
2022-10-22T13:07:53.335Z,11.74
2022-10-22T13:10:26.608Z,11.68
2022-10-22T13:12:58.966Z,11.65
2022-10-22T13:15:35.784Z,11.67
2022-10-22T13:18:18.963Z,11.60
2022-10-22T13:21:03.249Z,11.64
2022-10-22T13:23:33.909Z,11.64
2022-10-22T13:26:17.895Z,11.68
2022-10-22T13:28:56.219Z,11.69
2022-10-22T13:31:27.348Z,11.63
2022-10-22T13:34:09.845Z,11.67
2022-10-22T13:36:41.689Z,11.55
2022-10-22T13:39:18.132Z,11.55
2022-10-22T13:41:46.282Z,11.54
2022-10-22T13:44:14.165Z,11.55
2022-10-22T13:46:43.439Z,11.49
2022-10-22T13:49:15.920Z,11.50
2022-10-22T13:51:44.433Z,11.45
2022-10-22T13:54:24.520Z,11.40
2022-10-22T13:56:53.702Z,11.40
2022-10-22T13:59:23.772Z,11.31
2022-10-22T14:01:52.258Z,11.31
2022-10-22T14:04:19.773Z,11.30
2022-10-22T14:06:50.410Z,11.27
2022-10-22T14:09:18.471Z,11.21
2022-10-22T14:11:46.119Z,11.17
2022-10-22T14:14:17.402Z,11.06
2022-10-22T14:16:46.424Z,10.99
2022-10-22T14:19:18.323Z,10.96
2022-10-22T14:21:47.168Z,10.91
2022-10-22T14:24:15.380Z,10.88
2022-10-22T14:26:44.080Z,10.82
2022-10-22T14:29:12.085Z,10.80
2022-10-22T14:31:42.262Z,10.77
2022-10-22T14:34:12.599Z,10.72
2022-10-22T14:36:40.459Z,10.70
2022-10-22T14:39:09.042Z,10.66
2022-10-22T14:41:38.224Z,10.64
2022-10-22T14:44:05.800Z,10.62
2022-10-22T14:46:34.908Z,10.63
2022-10-22T14:49:02.972Z,10.58
2022-10-22T14:51:32.224Z,10.57
2022-10-22T14:53:59.928Z,10.50
2022-10-22T14:56:27.505Z,10.52
2022-10-22T14:58:55.082Z,10.40
2022-10-22T15:01:22.611Z,10.40
2022-10-22T15:03:50.093Z,10.34
2022-10-22T15:06:17.951Z,10.33
2022-10-22T15:08:45.898Z,10.28
2022-10-22T15:11:15.550Z,10.29
2022-10-22T15:13:43.691Z,10.25
2022-10-22T15:16:15.949Z,10.25
2022-10-22T15:18:43.713Z,10.21
2022-10-22T15:21:22.581Z,10.23
2022-10-22T15:23:50.213Z,10.24
2022-10-22T15:26:17.975Z,10.23
2022-10-22T15:28:46.300Z,10.22
2022-10-22T15:31:14.989Z,10.23
2022-10-22T15:33:45.004Z,10.23
2022-10-22T15:36:15.601Z,10.25
2022-10-22T15:38:43.303Z,10.25
2022-10-22T15:41:12.719Z,10.23
2022-10-22T15:43:40.448Z,10.19
2022-10-22T15:46:30.843Z,10.14
2022-10-22T15:49:01.378Z,10.10
2022-10-22T15:51:29.086Z,10.10
2022-10-22T15:53:58.544Z,10.10
2022-10-22T15:56:26.777Z,10.14
2022-10-22T15:58:58.992Z,10.11
2022-10-22T16:01:27.564Z,10.14
2022-10-22T16:04:02.896Z,10.08
2022-10-22T16:06:33.832Z,10.04
2022-10-22T16:09:02.757Z,10.04
2022-10-22T16:11:31.319Z,9.98
2022-10-22T16:14:00.364Z,9.97
2022-10-22T16:16:30.068Z,9.95
2022-10-22T16:18:58.171Z,9.92
2022-10-22T16:21:30.276Z,9.90
2022-10-22T16:24:05.912Z,9.87
2022-10-22T16:26:35.581Z,9.87
2022-10-22T16:29:04.404Z,9.87
2022-10-22T16:31:31.950Z,9.85
2022-10-22T16:33:59.475Z,9.83
2022-10-22T16:36:26.996Z,9.87
2022-10-22T16:38:56.442Z,9.85
2022-10-22T16:41:25.581Z,9.86
2022-10-22T16:43:55.336Z,9.84
2022-10-22T16:46:22.893Z,9.83
2022-10-22T16:48:52.866Z,9.83
2022-10-22T16:51:23.630Z,9.84
2022-10-22T16:53:52.587Z,9.82
2022-10-22T16:56:20.854Z,9.82
2022-10-22T16:58:53.937Z,9.80
2022-10-22T17:01:24.285Z,9.82
2022-10-22T17:03:52.702Z,9.83
2022-10-22T17:06:21.711Z,9.83
2022-10-22T17:08:49.364Z,9.82
2022-10-22T17:11:20.294Z,9.77
2022-10-22T17:13:49.709Z,9.77
2022-10-22T17:16:20.948Z,9.76
2022-10-22T17:18:49.074Z,9.76
2022-10-22T17:21:17.352Z,9.81
2022-10-22T17:23:46.868Z,9.78
2022-10-22T17:26:19.636Z,9.77
2022-10-22T17:28:48.772Z,9.74
2022-10-22T17:31:21.871Z,9.76
2022-10-22T17:33:51.829Z,9.79
2022-10-22T17:36:20.372Z,9.78
2022-10-22T17:38:50.894Z,9.74
2022-10-22T17:41:22.366Z,9.79
2022-10-22T17:43:50.322Z,9.74
2022-10-22T17:46:20.849Z,9.75
2022-10-22T17:48:56.298Z,9.69
2022-10-22T17:51:26.277Z,9.71
2022-10-22T17:53:54.116Z,9.69
2022-10-22T17:56:24.336Z,9.69
2022-10-22T17:58:52.889Z,9.71
2022-10-22T18:01:25.276Z,9.67
2022-10-22T18:03:55.053Z,9.67
2022-10-22T18:06:23.170Z,9.64
2022-10-22T18:08:50.894Z,9.67
2022-10-22T18:11:21.248Z,9.65
2022-10-22T18:13:54.941Z,9.65
2022-10-22T18:16:22.488Z,9.66
2022-10-22T18:18:53.197Z,9.68
2022-10-22T18:21:22.543Z,9.70
2022-10-22T18:23:50.565Z,9.65
2022-10-22T18:26:21.417Z,9.71
2022-10-22T18:28:51.919Z,9.73
2022-10-22T18:31:21.690Z,9.73
2022-10-22T18:33:50.331Z,9.69
2022-10-22T18:36:20.394Z,9.66
2022-10-22T18:38:53.046Z,9.63
2022-10-22T18:41:21.838Z,9.63
2022-10-22T18:43:57.171Z,9.66
2022-10-22T18:46:28.466Z,9.63
2022-10-22T18:48:57.932Z,9.69
2022-10-22T18:51:30.724Z,9.69
2022-10-22T18:54:05.247Z,9.68
2022-10-22T18:56:34.857Z,9.64
2022-10-22T18:59:02.787Z,9.59
2022-10-22T19:01:30.656Z,9.60
2022-10-22T19:03:59.588Z,9.64
2022-10-22T19:06:34.335Z,9.63
2022-10-22T19:09:05.800Z,9.64
2022-10-22T19:11:33.972Z,9.61
2022-10-22T19:14:01.917Z,9.58
2022-10-22T19:16:30.456Z,9.57
2022-10-22T19:19:02.299Z,9.56
2022-10-22T19:21:30.536Z,9.49
2022-10-22T19:24:00.773Z,9.50
2022-10-22T19:26:31.177Z,9.46
2022-10-22T19:29:11.158Z,9.44
2022-10-22T19:31:40.992Z,9.44
2022-10-22T19:34:11.463Z,9.44
2022-10-22T19:36:39.027Z,9.41
2022-10-22T19:39:06.931Z,9.40
2022-10-22T19:41:35.284Z,9.38
2022-10-22T19:44:02.992Z,9.33
2022-10-22T19:46:32.740Z,9.29
2022-10-22T19:49:03.036Z,9.25
2022-10-22T19:51:31.934Z,9.21
2022-10-22T19:54:03.336Z,9.22
2022-10-22T19:56:34.105Z,9.16
2022-10-22T19:59:04.511Z,9.15
2022-10-22T20:01:32.718Z,9.14
2022-10-22T20:04:01.668Z,9.10
2022-10-22T20:06:30.429Z,9.12
2022-10-22T20:09:00.584Z,9.07
2022-10-22T20:11:30.429Z,9.01
2022-10-22T20:13:59.390Z,9.00
2022-10-22T20:16:30.139Z,9.03
2022-10-22T20:19:04.288Z,8.96
2022-10-22T20:21:32.541Z,8.94
2022-10-22T20:24:01.758Z,8.92
2022-10-22T20:26:29.647Z,8.90
2022-10-22T20:28:58.424Z,8.90
2022-10-22T20:31:28.661Z,8.86
2022-10-22T20:34:02.136Z,8.86
2022-10-22T20:36:31.231Z,8.83
2022-10-22T20:39:06.387Z,8.86
2022-10-22T20:41:37.976Z,8.85
2022-10-22T20:44:05.801Z,8.81
2022-10-22T20:46:34.477Z,8.80
2022-10-22T20:49:07.319Z,8.77
2022-10-22T20:51:36.220Z,8.73
2022-10-22T20:54:05.251Z,8.72
2022-10-22T20:56:34.642Z,8.72
2022-10-22T20:59:05.488Z,8.65
2022-10-22T21:01:40.265Z,8.67
2022-10-22T21:04:08.169Z,8.65
2022-10-22T21:06:38.352Z,8.62
2022-10-22T21:09:10.697Z,8.62
2022-10-22T21:11:39.557Z,8.63
2022-10-22T21:14:08.785Z,8.62
2022-10-22T21:16:39.952Z,8.61
2022-10-22T21:19:07.900Z,8.58
2022-10-22T21:21:35.771Z,8.60
2022-10-22T21:24:03.724Z,8.61
2022-10-22T21:26:32.539Z,8.61
2022-10-22T21:29:00.087Z,8.62
2022-10-22T21:31:27.970Z,8.66
2022-10-22T21:33:55.963Z,8.65
2022-10-22T21:36:24.281Z,8.62
2022-10-22T21:38:53.026Z,8.65
2022-10-22T21:41:23.725Z,8.64
2022-10-22T21:43:52.174Z,8.64
2022-10-22T21:46:22.669Z,8.68
2022-10-22T21:48:59.312Z,8.75
2022-10-22T21:51:29.660Z,8.80
2022-10-22T21:53:57.981Z,8.82
2022-10-22T21:56:27.962Z,8.85
2022-10-22T21:58:55.991Z,8.92
2022-10-22T22:01:24.079Z,8.93
2022-10-22T22:03:52.679Z,8.93
2022-10-22T22:06:22.570Z,8.97
2022-10-22T22:08:52.772Z,9.03
2022-10-22T22:11:23.405Z,9.05
2022-10-22T22:13:52.001Z,8.99
2022-10-22T22:16:28.749Z,9.06
2022-10-22T22:19:02.243Z,9.10
2022-10-22T22:21:30.781Z,9.14
2022-10-22T22:23:58.726Z,9.16
2022-10-22T22:26:30.066Z,9.13
2022-10-22T22:28:59.836Z,9.15
2022-10-22T22:31:33.421Z,9.19
2022-10-22T22:34:06.304Z,9.19
2022-10-22T22:36:40.197Z,9.20
2022-10-22T22:39:11.329Z,9.23
2022-10-22T22:41:38.959Z,9.24
2022-10-22T22:44:06.881Z,9.23
2022-10-22T22:46:34.571Z,9.25
2022-10-22T22:49:02.219Z,9.25
2022-10-22T22:51:30.441Z,9.25
2022-10-22T22:54:00.225Z,9.25
2022-10-22T22:56:30.523Z,9.24
2022-10-22T22:58:58.830Z,9.29
2022-10-22T23:01:34.401Z,9.32
2022-10-22T23:04:06.484Z,9.34
2022-10-22T23:06:37.258Z,9.33
2022-10-22T23:09:06.698Z,9.34
2022-10-22T23:11:34.961Z,9.34
2022-10-22T23:14:04.481Z,9.36
2022-10-22T23:16:36.904Z,9.40
2022-10-22T23:19:06.382Z,9.46
2022-10-22T23:21:36.853Z,9.42
2022-10-22T23:24:08.852Z,9.38
2022-10-22T23:26:39.248Z,9.45
2022-10-22T23:29:10.833Z,9.42
2022-10-22T23:31:39.441Z,9.43
2022-10-22T23:34:07.906Z,9.45
2022-10-22T23:36:36.577Z,9.45
2022-10-22T23:39:09.501Z,9.49
2022-10-22T23:41:38.154Z,9.50
2022-10-22T23:44:07.593Z,9.48
2022-10-22T23:46:38.632Z,9.50
2022-10-22T23:49:08.023Z,9.49
2022-10-22T23:51:36.673Z,9.57
2022-10-22T23:54:07.006Z,9.51
2022-10-22T23:56:35.737Z,9.56
2022-10-22T23:59:05.045Z,9.54
